createdAt,value
2019-04-23T00:01:14.689Z,100.00
2019-04-23T00:03:35.642Z,100.00
2019-04-23T00:06:15.196Z,100.00
2019-04-23T00:09:05.431Z,100.00
2019-04-23T00:11:15.388Z,100.00
2019-04-23T00:13:49.858Z,100.00
2019-04-23T00:16:21.545Z,100.00
2019-04-23T00:19:00.702Z,100.00
2019-04-23T00:24:53.851Z,100.00
2019-04-23T00:27:06.585Z,100.00
2019-04-23T00:29:36.763Z,100.00
2019-04-23T00:32:10.467Z,100.00
2019-04-23T00:34:41.355Z,100.00
2019-04-23T00:37:18.640Z,100.00
2019-04-23T00:39:42.440Z,100.00
2019-04-23T00:42:15.204Z,100.00
2019-04-23T00:44:46.036Z,100.00
2019-04-23T00:47:23.638Z,100.00
2019-04-23T00:50:02.109Z,100.00
2019-04-23T00:52:27.327Z,100.00
2019-04-23T00:54:57.064Z,100.00
2019-04-23T00:57:34.047Z,100.00
2019-04-23T01:00:03.799Z,100.00
2019-04-23T01:02:33.536Z,100.00
2019-04-23T01:05:08.470Z,100.00
2019-04-23T01:07:33.493Z,100.00
2019-04-23T01:10:16.749Z,100.00
2019-04-23T01:12:46.707Z,100.00
2019-04-23T01:15:21.754Z,100.00
2019-04-23T01:17:57.761Z,100.00
2019-04-23T01:20:28.527Z,100.00
2019-04-23T01:22:40.098Z,100.00
2019-04-23T01:25:40.508Z,100.00
2019-04-23T01:28:26.632Z,100.00
2019-04-23T01:31:05.249Z,100.00
2019-04-23T01:33:37.947Z,100.00
2019-04-23T01:36:16.124Z,100.00
2019-04-23T01:38:40.534Z,100.00
2019-04-23T01:41:09.762Z,100.00
2019-04-23T01:43:44.356Z,100.00
2019-04-23T01:46:14.724Z,100.00
2019-04-23T01:48:47.085Z,100.00
2019-04-23T01:51:22.180Z,100.00
2019-04-23T01:58:53.589Z,100.00
2019-04-23T02:01:25.857Z,100.00
2019-04-23T02:08:58.809Z,100.00
2019-04-23T02:11:33.636Z,100.00
2019-04-23T02:14:08.264Z,100.00
2019-04-23T02:20:08.872Z,100.00
2019-04-23T02:23:04.683Z,100.00
2019-04-23T02:28:07.554Z,100.00
2019-04-23T02:35:55.638Z,100.00
2019-04-23T02:38:44.384Z,100.00
2019-04-23T02:41:03.666Z,100.00
2019-04-23T02:43:25.971Z,100.00
2019-04-23T02:46:01.560Z,100.00
2019-04-23T02:48:49.937Z,100.00
2019-04-23T02:51:03.919Z,100.00
2019-04-23T02:54:00.754Z,100.00
2019-04-23T02:56:14.632Z,100.00
2019-04-23T02:58:41.935Z,100.00
2019-04-23T03:01:21.757Z,100.00
2019-04-23T03:03:49.717Z,100.00
2019-04-23T03:08:49.285Z,100.00
2019-04-23T03:16:45.375Z,100.00
2019-04-23T03:19:23.661Z,100.00
2019-04-23T03:22:01.464Z,100.00
2019-04-23T03:25:05.249Z,100.00
2019-04-23T03:27:31.501Z,100.00
2019-04-23T03:37:33.645Z,100.00
2019-04-23T03:40:01.912Z,100.00
2019-04-23T03:42:47.561Z,100.00
2019-04-23T03:45:19.202Z,100.00
2019-04-23T03:52:41.549Z,100.00
2019-04-23T03:55:18.521Z,100.00
2019-04-23T03:58:05.038Z,100.00
2019-04-23T04:00:37.492Z,100.00
2019-04-23T04:03:03.768Z,100.00
2019-04-23T04:05:33.688Z,100.00
2019-04-23T04:08:12.088Z,100.00
2019-04-23T04:10:41.591Z,100.00
2019-04-23T04:13:22.820Z,100.00
2019-04-23T04:15:51.311Z,100.00
2019-04-23T04:18:25.890Z,100.00
2019-04-23T04:23:24.188Z,100.00
2019-04-23T04:25:49.988Z,100.00
2019-04-23T04:36:07.416Z,100.00
2019-04-23T04:43:45.607Z,100.00
2019-04-23T04:53:50.822Z,100.00
2019-04-23T04:56:25.272Z,100.00
2019-04-23T04:58:47.461Z,100.00
2019-04-23T05:01:12.155Z,100.00
2019-04-23T05:04:00.335Z,100.00
2019-04-23T05:08:54.357Z,100.00
2019-04-23T05:16:29.444Z,100.00
2019-04-23T05:19:15.585Z,100.00
2019-04-23T05:21:46.845Z,100.00
2019-04-23T05:24:14.862Z,100.00
2019-04-23T05:26:39.511Z,100.00
2019-04-23T05:31:40.395Z,100.00
2019-04-23T05:34:19.548Z,100.00
2019-04-23T05:41:57.183Z,100.00
2019-04-23T05:44:29.623Z,100.00
2019-04-23T05:47:01.266Z,100.00
2019-04-23T05:49:45.422Z,100.00
2019-04-23T05:52:04.463Z,100.00
2019-04-23T05:54:37.408Z,100.00
2019-04-23T05:57:02.873Z,100.00
2019-04-23T05:59:36.054Z,100.00
2019-04-23T06:02:07.589Z,100.00
2019-04-23T06:04:47.388Z,100.00
2019-04-23T06:07:22.136Z,100.00
2019-04-23T06:09:46.837Z,100.00
2019-04-23T06:12:13.594Z,100.00
2019-04-23T06:14:52.557Z,100.00
2019-04-23T06:17:21.588Z,100.00
2019-04-23T06:19:58.530Z,100.00
2019-04-23T06:22:35.199Z,100.00
2019-04-23T06:25:04.273Z,100.00
2019-04-23T06:27:32.328Z,98.69
2019-04-23T06:30:01.090Z,97.64
2019-04-23T06:32:41.395Z,97.71
2019-04-23T06:35:04.801Z,100.00
2019-04-23T06:38:04.716Z,100.00
2019-04-23T06:40:13.943Z,100.00
2019-04-23T06:43:05.314Z,98.43
2019-04-23T06:45:37.802Z,97.29
2019-04-23T06:48:16.621Z,95.38
2019-04-23T06:50:52.353Z,93.61
2019-04-23T06:53:12.225Z,94.82
2019-04-23T06:55:49.226Z,93.75
2019-04-23T06:58:30.749Z,91.85
2019-04-23T07:00:55.874Z,88.51
2019-04-23T07:03:30.111Z,84.85
2019-04-23T07:11:23.296Z,81.90
2019-04-23T07:13:54.149Z,82.63
2019-04-23T07:16:14.649Z,79.67
2019-04-23T07:18:47.024Z,80.26
2019-04-23T07:24:00.866Z,81.71
2019-04-23T07:26:33.321Z,80.24
2019-04-23T07:34:01.101Z,83.33
2019-04-23T07:44:51.960Z,89.00
2019-04-23T07:47:41.895Z,89.84
2019-04-23T07:50:11.341Z,91.00
2019-04-23T07:52:33.675Z,87.83
2019-04-23T07:58:04.118Z,83.05
2019-04-23T08:00:39.379Z,82.37
2019-04-23T08:03:08.553Z,78.45
2019-04-23T08:05:36.172Z,81.11
2019-04-23T08:08:01.736Z,81.94
2019-04-23T08:10:35.763Z,80.73
2019-04-23T08:15:42.581Z,82.10
2019-04-23T08:20:52.403Z,82.16
2019-04-23T08:23:47.204Z,82.64
2019-04-23T08:26:33.678Z,81.41
2019-04-23T08:29:05.790Z,76.40
2019-04-23T08:31:38.564Z,73.76
2019-04-23T08:34:16.980Z,73.30
2019-04-23T08:36:40.760Z,74.18
2019-04-23T08:39:10.322Z,71.16
2019-04-23T08:42:02.009Z,69.07
2019-04-23T08:44:36.926Z,66.26
2019-04-23T08:47:15.817Z,66.75
2019-04-23T08:49:43.629Z,63.71
2019-04-23T08:52:14.818Z,64.00
2019-04-23T08:57:18.340Z,59.84
2019-04-23T09:02:30.868Z,59.60
2019-04-23T09:04:53.877Z,56.95
2019-04-23T09:07:27.600Z,56.56
2019-04-23T09:10:02.474Z,57.08
2019-04-23T09:12:31.695Z,55.49
2019-04-23T09:15:03.903Z,54.11
2019-04-23T09:17:36.164Z,58.04
2019-04-23T09:25:14.686Z,51.69
2019-04-23T09:27:45.251Z,50.16
2019-04-23T09:30:14.740Z,50.03
2019-04-23T09:32:51.946Z,48.71
2019-04-23T09:35:30.772Z,48.74
2019-04-23T09:38:41.427Z,47.52
2019-04-23T09:41:31.306Z,46.68
2019-04-23T09:47:29.729Z,41.93
2019-04-23T09:50:01.238Z,42.39
2019-04-23T09:52:28.402Z,43.32
2019-04-23T09:55:04.695Z,45.19
2019-04-23T09:57:36.037Z,42.98
2019-04-23T10:00:15.504Z,41.02
2019-04-23T10:02:31.003Z,41.20
2019-04-23T10:04:56.763Z,42.22
2019-04-23T10:07:28.875Z,40.76
2019-04-23T10:09:49.704Z,41.80
2019-04-23T10:12:22.020Z,42.25
2019-04-23T10:15:05.437Z,42.36
2019-04-23T10:17:26.320Z,42.47
2019-04-23T10:19:58.298Z,43.76
2019-04-23T10:22:30.129Z,42.73
2019-04-23T10:25:01.306Z,41.38
2019-04-23T10:27:33.001Z,40.60
2019-04-23T10:30:03.977Z,39.37
2019-04-23T10:32:37.657Z,40.18
2019-04-23T10:35:20.957Z,39.67
2019-04-23T10:37:48.919Z,38.37
2019-04-23T10:40:22.945Z,38.34
2019-04-23T10:42:51.709Z,38.60
2019-04-23T10:45:48.447Z,38.85
2019-04-23T10:48:57.633Z,38.13
2019-04-23T10:51:28.629Z,36.81
2019-04-23T10:54:19.551Z,36.19
2019-04-23T10:56:45.072Z,36.96
2019-04-23T10:59:34.225Z,37.55
2019-04-23T11:02:24.064Z,35.00
2019-04-23T11:04:47.254Z,33.55
2019-04-23T11:07:20.812Z,36.46
2019-04-23T11:09:52.111Z,35.04
2019-04-23T11:12:37.197Z,30.82
2019-04-23T11:15:34.394Z,29.17
2019-04-23T11:17:50.178Z,28.24
2019-04-23T11:20:32.016Z,29.52
2019-04-23T11:22:48.290Z,28.88
2019-04-23T11:28:10.240Z,25.88
2019-04-23T11:30:36.130Z,27.89
2019-04-23T11:33:20.258Z,28.37
2019-04-23T11:35:47.676Z,27.59
2019-04-23T11:40:36.939Z,29.12
2019-04-23T11:43:22.783Z,28.24
2019-04-23T11:51:28.735Z,26.87
2019-04-23T11:53:35.989Z,24.33
2019-04-23T11:56:02.698Z,24.22
2019-04-23T12:07:17.580Z,24.73
2019-04-23T12:12:28.578Z,22.51
2019-04-23T12:15:07.391Z,24.48
2019-04-23T12:17:42.267Z,26.22
2019-04-23T12:20:02.891Z,23.99
2019-04-23T12:22:51.504Z,23.98
2019-04-23T12:27:38.665Z,21.11
2019-04-23T12:30:25.221Z,23.05
2019-04-23T12:35:22.412Z,23.31
2019-04-23T12:38:03.280Z,25.17
2019-04-23T12:43:12.432Z,22.56
2019-04-23T12:45:38.840Z,23.10
2019-04-23T12:53:25.804Z,22.55
2019-04-23T12:55:48.143Z,21.42
2019-04-23T12:58:24.780Z,22.20
2019-04-23T13:00:45.802Z,23.91
2019-04-23T13:05:51.252Z,25.72
2019-04-23T13:11:06.887Z,26.73
2019-04-23T13:13:37.490Z,26.71
2019-04-23T13:16:12.347Z,23.82
2019-04-23T13:18:38.116Z,22.24
2019-04-23T13:21:32.961Z,22.06
2019-04-23T13:23:41.132Z,23.93
2019-04-23T13:26:13.492Z,25.87
2019-04-23T13:28:52.541Z,25.82
2019-04-23T13:31:26.607Z,22.93
2019-04-23T13:33:52.491Z,20.80
2019-04-23T13:36:33.004Z,19.67
2019-04-23T13:38:57.119Z,21.14
2019-04-23T13:43:52.635Z,23.71
2019-04-23T13:46:45.539Z,24.13
2019-04-23T13:49:08.053Z,23.38
2019-04-23T13:51:40.014Z,22.15
2019-04-23T13:54:17.333Z,22.27
2019-04-23T13:57:12.836Z,21.44
2019-04-23T13:59:21.858Z,22.11
2019-04-23T14:01:46.923Z,20.28
2019-04-23T14:04:38.300Z,20.33
2019-04-23T14:07:07.502Z,21.01
2019-04-23T14:09:50.834Z,21.18
2019-04-23T14:12:17.622Z,21.06
2019-04-23T14:17:37.972Z,15.79
2019-04-23T14:19:53.451Z,17.46
2019-04-23T14:25:05.753Z,17.06
2019-04-23T14:32:40.065Z,16.15
2019-04-23T14:35:25.454Z,16.20
2019-04-23T14:37:53.130Z,17.23
2019-04-23T14:40:21.672Z,18.25
2019-04-23T14:42:56.030Z,18.54
2019-04-23T14:45:42.580Z,17.08
2019-04-23T14:48:03.892Z,17.09
2019-04-23T14:53:16.149Z,19.48
2019-04-23T14:55:49.372Z,19.08
2019-04-23T14:58:23.484Z,18.24
2019-04-23T15:01:05.182Z,20.56
2019-04-23T15:06:02.556Z,21.24
2019-04-23T15:08:28.575Z,22.08
2019-04-23T15:11:09.560Z,23.54
2019-04-23T15:16:03.070Z,22.79
2019-04-23T15:24:00.205Z,22.98
2019-04-23T15:28:37.308Z,22.44
2019-04-23T15:31:33.606Z,22.38
2019-04-23T15:34:07.604Z,21.87
2019-04-23T15:44:14.898Z,18.26
2019-04-23T15:49:22.998Z,18.62
2019-04-23T15:51:52.484Z,22.40
2019-04-23T15:54:25.009Z,25.50
2019-04-23T15:56:57.917Z,25.50
2019-04-23T15:59:34.963Z,22.91
2019-04-23T16:01:41.117Z,22.97
2019-04-23T16:04:01.438Z,23.97
2019-04-23T16:06:34.767Z,26.50
2019-04-23T16:09:21.066Z,26.03
2019-04-23T16:12:01.072Z,22.87
2019-04-23T16:14:52.968Z,23.21
2019-04-23T16:17:13.786Z,26.00
2019-04-23T16:25:09.859Z,29.65
2019-04-23T16:27:40.177Z,30.32
2019-04-23T16:35:46.207Z,27.62
2019-04-23T16:38:26.773Z,31.05
2019-04-23T16:40:50.536Z,31.80
2019-04-23T16:43:13.343Z,33.22
2019-04-23T16:48:36.675Z,35.91
2019-04-23T16:51:12.219Z,35.50
2019-04-23T16:53:27.537Z,35.07
2019-04-23T16:56:04.226Z,32.78
2019-04-23T17:01:03.385Z,32.05
2019-04-23T17:03:31.483Z,30.90
2019-04-23T17:06:15.871Z,33.20
2019-04-23T17:08:53.953Z,35.05
2019-04-23T17:11:15.262Z,36.78
2019-04-23T17:14:02.680Z,37.97
2019-04-23T17:16:16.759Z,39.65
2019-04-23T17:18:48.935Z,40.67
2019-04-23T17:21:16.912Z,41.47
2019-04-23T17:26:25.617Z,42.32
2019-04-23T17:29:03.983Z,42.84
2019-04-23T17:36:44.341Z,44.04
2019-04-23T17:39:18.079Z,44.81
2019-04-23T17:42:22.540Z,44.86
2019-04-23T17:45:02.503Z,46.28
2019-04-23T17:47:35.244Z,46.52
2019-04-23T17:52:41.990Z,46.74
2019-04-23T17:55:18.270Z,47.01
2019-04-23T17:57:43.713Z,47.62
2019-04-23T18:05:33.222Z,49.08
2019-04-23T18:08:06.708Z,51.06
2019-04-23T18:10:37.074Z,51.97
2019-04-23T18:15:17.666Z,54.93
2019-04-23T18:18:02.481Z,55.60
2019-04-23T18:20:58.064Z,55.56
2019-04-23T18:23:22.249Z,57.25
2019-04-23T18:26:04.095Z,58.04
2019-04-23T18:28:36.721Z,57.83
2019-04-23T18:31:13.030Z,56.96
2019-04-23T18:36:26.292Z,58.61
2019-04-23T18:41:41.637Z,58.65
2019-04-23T18:44:16.101Z,58.49
2019-04-23T18:46:43.795Z,58.90
2019-04-23T18:49:11.370Z,58.90
2019-04-23T18:51:55.063Z,60.36
2019-04-23T18:54:14.859Z,61.28
2019-04-23T18:57:02.042Z,62.10
2019-04-23T18:59:31.291Z,62.16
2019-04-23T19:05:15.351Z,65.79
2019-04-23T19:08:07.611Z,68.22
2019-04-23T19:11:05.409Z,68.60
2019-04-23T19:13:24.781Z,72.48
2019-04-23T19:15:45.837Z,73.81
2019-04-23T19:18:35.277Z,77.59
2019-04-23T19:21:09.218Z,78.96
2019-04-23T19:26:02.173Z,82.79
2019-04-23T19:31:27.574Z,83.71
2019-04-23T19:34:29.781Z,84.79
2019-04-23T19:36:59.218Z,84.35
2019-04-23T19:44:32.788Z,89.00
2019-04-23T19:47:17.070Z,89.56
2019-04-23T19:52:20.271Z,90.66
2019-04-23T19:57:17.840Z,90.77
2019-04-23T20:04:55.458Z,92.93
2019-04-23T20:12:38.743Z,94.15
2019-04-23T20:14:56.523Z,96.54
2019-04-23T20:20:06.206Z,95.53
2019-04-23T20:22:43.479Z,94.61
2019-04-23T20:28:05.732Z,97.44
2019-04-23T20:35:50.364Z,99.57
2019-04-23T20:40:53.906Z,100.00
2019-04-23T20:43:22.845Z,100.00
2019-04-23T20:45:58.831Z,100.00
2019-04-23T20:48:31.066Z,100.00
2019-04-23T20:51:01.402Z,100.00
2019-04-23T20:53:40.398Z,100.00
2019-04-23T20:56:07.380Z,100.00
2019-04-23T20:58:47.955Z,100.00
2019-04-23T21:03:56.794Z,100.00
2019-04-23T21:06:30.082Z,100.00
2019-04-23T21:11:40.419Z,100.00
2019-04-23T21:19:10.118Z,100.00
2019-04-23T21:22:06.030Z,100.00
2019-04-23T21:24:43.049Z,100.00
2019-04-23T21:27:21.745Z,100.00
2019-04-23T21:30:00.670Z,100.00
2019-04-23T21:32:35.539Z,100.00
2019-04-23T21:35:02.710Z,100.00
2019-04-23T21:38:48.427Z,100.00
2019-04-23T21:40:57.738Z,100.00
2019-04-23T21:43:16.456Z,100.00
2019-04-23T21:45:54.497Z,100.00
2019-04-23T21:48:15.657Z,100.00
2019-04-23T21:50:49.061Z,100.00
2019-04-23T21:53:18.755Z,100.00
2019-04-23T21:58:41.277Z,100.00
2019-04-23T22:01:06.030Z,100.00
2019-04-23T22:04:01.681Z,100.00
2019-04-23T22:06:17.598Z,100.00
2019-04-23T22:08:43.596Z,100.00
2019-04-23T22:11:36.267Z,100.00
2019-04-23T22:14:02.381Z,100.00
2019-04-23T22:19:04.272Z,100.00
2019-04-23T22:24:07.102Z,100.00
2019-04-23T22:26:28.420Z,100.00
2019-04-23T22:31:38.761Z,100.00
2019-04-23T22:34:08.962Z,100.00
2019-04-23T22:36:57.427Z,100.00
2019-04-23T22:41:46.216Z,100.00
2019-04-23T22:44:10.847Z,100.00
2019-04-23T22:46:52.443Z,100.00
2019-04-23T22:52:06.420Z,100.00
2019-04-23T22:54:23.345Z,100.00
2019-04-23T22:57:05.015Z,100.00
2019-04-23T22:59:48.894Z,100.00
2019-04-23T23:02:36.688Z,100.00
2019-04-23T23:05:09.980Z,100.00
2019-04-23T23:07:39.711Z,100.00
2019-04-23T23:10:06.879Z,100.00
2019-04-23T23:17:53.196Z,100.00
2019-04-23T23:20:20.861Z,100.00
2019-04-23T23:25:20.553Z,100.00
2019-04-23T23:30:19.726Z,100.00
2019-04-23T23:32:56.727Z,100.00
2019-04-23T23:35:31.232Z,100.00
2019-04-23T23:38:02.551Z,100.00
2019-04-23T23:40:25.495Z,100.00
2019-04-23T23:45:36.796Z,100.00
2019-04-23T23:48:08.963Z,100.00
2019-04-23T23:50:45.178Z,100.00
2019-04-23T23:53:15.596Z,100.00
2019-04-23T23:55:51.890Z,100.00
